sensor_id;sensor_type;location;lat;lon;timestamp;P1;durP1;ratioP1;P2;durP2;ratioP2
2011;SDS011;1009;51.436;6.972;2022-11-20T00:02:17;27.00;;;19.97;;
2011;SDS011;1009;51.436;6.972;2022-11-20T00:04:44;28.90;;;22.70;;
2011;SDS011;1009;51.436;6.972;2022-11-20T00:07:11;32.03;;;22.80;;
2011;SDS011;1009;51.436;6.972;2022-11-20T00:09:37;27.67;;;21.33;;
2011;SDS011;1009;51.436;6.972;2022-11-20T00:12:04;27.77;;;21.77;;
2011;SDS011;1009;51.436;6.972;2022-11-20T00:14:32;29.77;;;21.80;;
2011;SDS011;1009;51.436;6.972;2022-11-20T00:16:59;28.07;;;21.47;;
2011;SDS011;1009;51.436;6.972;2022-11-20T00:19:26;29.83;;;22.00;;
2011;SDS011;1009;51.436;6.972;2022-11-20T00:21:53;33.47;;;21.40;;
2011;SDS011;1009;51.436;6.972;2022-11-20T00:24:20;26.73;;;21.67;;
2011;SDS011;1009;51.436;6.972;2022-11-20T00:26:47;28.00;;;20.70;;
2011;SDS011;1009;51.436;6.972;2022-11-20T00:29:14;30.40;;;23.13;;
2011;SDS011;1009;51.436;6.972;2022-11-20T00:31:42;26.60;;;21.50;;
2011;SDS011;1009;51.436;6.972;2022-11-20T00:34:08;29.63;;;21.63;;
2011;SDS011;1009;51.436;6.972;2022-11-20T00:36:35;30.63;;;21.63;;
2011;SDS011;1009;51.436;6.972;2022-11-20T00:39:02;32.87;;;22.10;;
2011;SDS011;1009;51.436;6.972;2022-11-20T00:41:29;29.20;;;20.93;;
2011;SDS011;1009;51.436;6.972;2022-11-20T00:43:56;24.60;;;20.67;;
2011;SDS011;1009;51.436;6.972;2022-11-20T00:46:24;27.40;;;21.40;;
2011;SDS011;1009;51.436;6.972;2022-11-20T00:48:53;28.13;;;21.40;;
2011;SDS011;1009;51.436;6.972;2022-11-20T00:51:21;29.60;;;21.50;;
2011;SDS011;1009;51.436;6.972;2022-11-20T00:53:48;27.07;;;21.20;;
2011;SDS011;1009;51.436;6.972;2022-11-20T00:56:16;33.07;;;22.40;;
2011;SDS011;1009;51.436;6.972;2022-11-20T00:58:45;30.83;;;22.90;;
2011;SDS011;1009;51.436;6.972;2022-11-20T01:01:14;29.03;;;21.80;;
2011;SDS011;1009;51.436;6.972;2022-11-20T01:03:43;31.87;;;22.87;;
2011;SDS011;1009;51.436;6.972;2022-11-20T01:06:13;29.13;;;21.90;;
2011;SDS011;1009;51.436;6.972;2022-11-20T01:08:41;28.43;;;21.23;;
2011;SDS011;1009;51.436;6.972;2022-11-20T01:11:09;25.50;;;20.40;;
2011;SDS011;1009;51.436;6.972;2022-11-20T01:13:37;30.20;;;22.73;;
2011;SDS011;1009;51.436;6.972;2022-11-20T01:16:05;28.97;;;22.60;;
2011;SDS011;1009;51.436;6.972;2022-11-20T01:18:33;29.00;;;22.33;;
2011;SDS011;1009;51.436;6.972;2022-11-20T01:21:01;33.57;;;24.50;;
2011;SDS011;1009;51.436;6.972;2022-11-20T01:23:33;32.90;;;22.83;;
2011;SDS011;1009;51.436;6.972;2022-11-20T01:26:02;28.63;;;22.50;;
2011;SDS011;1009;51.436;6.972;2022-11-20T01:28:30;30.23;;;22.77;;
2011;SDS011;1009;51.436;6.972;2022-11-20T01:30:56;26.60;;;21.87;;
2011;SDS011;1009;51.436;6.972;2022-11-20T01:33:24;29.90;;;22.67;;
2011;SDS011;1009;51.436;6.972;2022-11-20T01:35:51;28.67;;;22.60;;
2011;SDS011;1009;51.436;6.972;2022-11-20T01:38:18;30.10;;;22.07;;
2011;SDS011;1009;51.436;6.972;2022-11-20T01:40:54;28.10;;;22.67;;
2011;SDS011;1009;51.436;6.972;2022-11-20T01:43:22;33.00;;;24.30;;
2011;SDS011;1009;51.436;6.972;2022-11-20T01:45:52;28.33;;;22.10;;
2011;SDS011;1009;51.436;6.972;2022-11-20T01:48:25;28.23;;;22.57;;
2011;SDS011;1009;51.436;6.972;2022-11-20T01:50:55;30.03;;;22.47;;
2011;SDS011;1009;51.436;6.972;2022-11-20T01:53:24;32.73;;;24.23;;
2011;SDS011;1009;51.436;6.972;2022-11-20T01:55:56;30.17;;;23.50;;
2011;SDS011;1009;51.436;6.972;2022-11-20T01:58:28;28.87;;;22.17;;
2011;SDS011;1009;51.436;6.972;2022-11-20T02:00:58;30.63;;;24.27;;
2011;SDS011;1009;51.436;6.972;2022-11-20T02:03:25;32.17;;;23.43;;
2011;SDS011;1009;51.436;6.972;2022-11-20T02:05:54;27.70;;;22.70;;
2011;SDS011;1009;51.436;6.972;2022-11-20T02:08:25;32.80;;;23.83;;
2011;SDS011;1009;51.436;6.972;2022-11-20T02:10:52;32.47;;;25.50;;
2011;SDS011;1009;51.436;6.972;2022-11-20T02:13:20;30.60;;;22.67;;
2011;SDS011;1009;51.436;6.972;2022-11-20T02:16:04;29.20;;;23.13;;
2011;SDS011;1009;51.436;6.972;2022-11-20T02:18:34;29.97;;;22.70;;
2011;SDS011;1009;51.436;6.972;2022-11-20T02:21:02;30.20;;;24.77;;
2011;SDS011;1009;51.436;6.972;2022-11-20T02:23:35;29.10;;;23.10;;
2011;SDS011;1009;51.436;6.972;2022-11-20T02:26:08;29.83;;;23.57;;
2011;SDS011;1009;51.436;6.972;2022-11-20T02:28:38;32.23;;;23.00;;
2011;SDS011;1009;51.436;6.972;2022-11-20T02:31:05;32.90;;;23.30;;
2011;SDS011;1009;51.436;6.972;2022-11-20T02:33:32;33.40;;;24.90;;
2011;SDS011;1009;51.436;6.972;2022-11-20T02:35:59;33.40;;;25.17;;
2011;SDS011;1009;51.436;6.972;2022-11-20T02:38:26;32.87;;;25.33;;
2011;SDS011;1009;51.436;6.972;2022-11-20T02:40:53;32.27;;;24.13;;
2011;SDS011;1009;51.436;6.972;2022-11-20T02:43:21;30.73;;;25.27;;
2011;SDS011;1009;51.436;6.972;2022-11-20T02:45:48;31.93;;;25.60;;
2011;SDS011;1009;51.436;6.972;2022-11-20T02:48:15;33.53;;;24.93;;
2011;SDS011;1009;51.436;6.972;2022-11-20T02:50:41;31.43;;;24.63;;
2011;SDS011;1009;51.436;6.972;2022-11-20T02:53:08;32.40;;;25.40;;
2011;SDS011;1009;51.436;6.972;2022-11-20T02:55:35;31.70;;;24.30;;
2011;SDS011;1009;51.436;6.972;2022-11-20T02:58:02;30.63;;;24.50;;
2011;SDS011;1009;51.436;6.972;2022-11-20T03:00:30;31.67;;;25.50;;
2011;SDS011;1009;51.436;6.972;2022-11-20T03:02:57;33.87;;;26.37;;
2011;SDS011;1009;51.436;6.972;2022-11-20T03:05:24;32.40;;;24.57;;
2011;SDS011;1009;51.436;6.972;2022-11-20T03:07:50;33.30;;;25.50;;
2011;SDS011;1009;51.436;6.972;2022-11-20T03:10:17;33.63;;;24.50;;
2011;SDS011;1009;51.436;6.972;2022-11-20T03:12:44;35.50;;;26.07;;
2011;SDS011;1009;51.436;6.972;2022-11-20T03:15:11;30.47;;;23.27;;
2011;SDS011;1009;51.436;6.972;2022-11-20T03:17:39;30.23;;;23.47;;
2011;SDS011;1009;51.436;6.972;2022-11-20T03:20:06;32.23;;;23.83;;
2011;SDS011;1009;51.436;6.972;2022-11-20T03:22:34;32.70;;;23.80;;
2011;SDS011;1009;51.436;6.972;2022-11-20T03:25:01;30.53;;;23.63;;
2011;SDS011;1009;51.436;6.972;2022-11-20T03:27:31;31.33;;;23.03;;
2011;SDS011;1009;51.436;6.972;2022-11-20T03:29:59;29.30;;;23.70;;
2011;SDS011;1009;51.436;6.972;2022-11-20T03:32:26;31.67;;;24.93;;
2011;SDS011;1009;51.436;6.972;2022-11-20T03:34:54;29.77;;;24.83;;
2011;SDS011;1009;51.436;6.972;2022-11-20T03:37:20;30.80;;;25.10;;
2011;SDS011;1009;51.436;6.972;2022-11-20T03:39:47;34.73;;;26.27;;
2011;SDS011;1009;51.436;6.972;2022-11-20T03:42:14;32.83;;;26.27;;
2011;SDS011;1009;51.436;6.972;2022-11-20T03:44:55;36.60;;;26.87;;
2011;SDS011;1009;51.436;6.972;2022-11-20T03:47:21;34.83;;;26.10;;
2011;SDS011;1009;51.436;6.972;2022-11-20T03:49:48;34.07;;;26.63;;
2011;SDS011;1009;51.436;6.972;2022-11-20T03:52:17;32.03;;;26.20;;
2011;SDS011;1009;51.436;6.972;2022-11-20T03:54:43;33.50;;;27.23;;
2011;SDS011;1009;51.436;6.972;2022-11-20T03:57:10;40.13;;;28.90;;
2011;SDS011;1009;51.436;6.972;2022-11-20T03:59:37;39.00;;;29.80;;
2011;SDS011;1009;51.436;6.972;2022-11-20T04:02:03;36.83;;;29.07;;
2011;SDS011;1009;51.436;6.972;2022-11-20T04:04:30;39.53;;;29.00;;
2011;SDS011;1009;51.436;6.972;2022-11-20T04:06:57;35.07;;;28.30;;
2011;SDS011;1009;51.436;6.972;2022-11-20T04:09:25;36.63;;;29.73;;
2011;SDS011;1009;51.436;6.972;2022-11-20T04:11:52;34.77;;;28.03;;
2011;SDS011;1009;51.436;6.972;2022-11-20T04:14:18;37.30;;;28.53;;
2011;SDS011;1009;51.436;6.972;2022-11-20T04:16:45;35.37;;;28.73;;
2011;SDS011;1009;51.436;6.972;2022-11-20T04:19:13;33.23;;;28.50;;
2011;SDS011;1009;51.436;6.972;2022-11-20T04:21:41;37.63;;;30.43;;
2011;SDS011;1009;51.436;6.972;2022-11-20T04:24:09;35.43;;;29.60;;
2011;SDS011;1009;51.436;6.972;2022-11-20T04:26:37;34.67;;;27.63;;
2011;SDS011;1009;51.436;6.972;2022-11-20T04:29:05;38.77;;;30.73;;
2011;SDS011;1009;51.436;6.972;2022-11-20T04:31:32;37.13;;;29.20;;
2011;SDS011;1009;51.436;6.972;2022-11-20T04:34:00;36.40;;;28.90;;
2011;SDS011;1009;51.436;6.972;2022-11-20T04:36:28;37.97;;;29.30;;
2011;SDS011;1009;51.436;6.972;2022-11-20T04:38:56;32.00;;;27.57;;
2011;SDS011;1009;51.436;6.972;2022-11-20T04:41:24;37.03;;;30.40;;
2011;SDS011;1009;51.436;6.972;2022-11-20T04:43:55;38.47;;;29.20;;
2011;SDS011;1009;51.436;6.972;2022-11-20T04:46:24;38.53;;;31.00;;
2011;SDS011;1009;51.436;6.972;2022-11-20T04:48:51;38.37;;;29.53;;
2011;SDS011;1009;51.436;6.972;2022-11-20T04:51:18;36.77;;;30.70;;
2011;SDS011;1009;51.436;6.972;2022-11-20T04:53:45;38.00;;;29.23;;
2011;SDS011;1009;51.436;6.972;2022-11-20T04:56:12;38.57;;;29.00;;
2011;SDS011;1009;51.436;6.972;2022-11-20T04:58:39;38.33;;;28.83;;
2011;SDS011;1009;51.436;6.972;2022-11-20T05:01:09;37.07;;;29.37;;
2011;SDS011;1009;51.436;6.972;2022-11-20T05:03:37;38.80;;;30.60;;
2011;SDS011;1009;51.436;6.972;2022-11-20T05:06:05;36.70;;;28.67;;
2011;SDS011;1009;51.436;6.972;2022-11-20T05:08:33;37.97;;;29.73;;
2011;SDS011;1009;51.436;6.972;2022-11-20T05:11:00;37.63;;;30.30;;
2011;SDS011;1009;51.436;6.972;2022-11-20T05:13:28;33.53;;;29.23;;
2011;SDS011;1009;51.436;6.972;2022-11-20T05:15:54;37.60;;;28.70;;
2011;SDS011;1009;51.436;6.972;2022-11-20T05:18:22;34.30;;;28.83;;
2011;SDS011;1009;51.436;6.972;2022-11-20T05:20:54;35.70;;;27.10;;
2011;SDS011;1009;51.436;6.972;2022-11-20T05:23:21;36.00;;;29.27;;
2011;SDS011;1009;51.436;6.972;2022-11-20T05:25:48;35.73;;;29.40;;
2011;SDS011;1009;51.436;6.972;2022-11-20T05:28:17;36.07;;;29.03;;
2011;SDS011;1009;51.436;6.972;2022-11-20T05:30:44;37.33;;;28.60;;
2011;SDS011;1009;51.436;6.972;2022-11-20T05:33:10;34.10;;;27.87;;
2011;SDS011;1009;51.436;6.972;2022-11-20T05:35:38;32.77;;;28.63;;
2011;SDS011;1009;51.436;6.972;2022-11-20T05:38:05;36.27;;;30.17;;
2011;SDS011;1009;51.436;6.972;2022-11-20T05:40:32;38.07;;;27.63;;
2011;SDS011;1009;51.436;6.972;2022-11-20T05:42:59;35.90;;;28.73;;
2011;SDS011;1009;51.436;6.972;2022-11-20T05:45:26;32.90;;;27.10;;
2011;SDS011;1009;51.436;6.972;2022-11-20T05:47:53;32.93;;;27.60;;
2011;SDS011;1009;51.436;6.972;2022-11-20T05:50:19;35.63;;;28.30;;
2011;SDS011;1009;51.436;6.972;2022-11-20T05:52:47;36.40;;;29.30;;
2011;SDS011;1009;51.436;6.972;2022-11-20T05:55:14;34.20;;;27.33;;
2011;SDS011;1009;51.436;6.972;2022-11-20T05:57:41;38.67;;;28.83;;
2011;SDS011;1009;51.436;6.972;2022-11-20T06:00:08;37.13;;;29.40;;
2011;SDS011;1009;51.436;6.972;2022-11-20T06:02:36;39.83;;;29.90;;
2011;SDS011;1009;51.436;6.972;2022-11-20T06:05:03;34.47;;;27.73;;
2011;SDS011;1009;51.436;6.972;2022-11-20T06:07:30;36.33;;;29.00;;
2011;SDS011;1009;51.436;6.972;2022-11-20T06:09:58;35.50;;;28.97;;
2011;SDS011;1009;51.436;6.972;2022-11-20T06:12:24;34.93;;;27.87;;
2011;SDS011;1009;51.436;6.972;2022-11-20T06:14:51;37.87;;;29.27;;
2011;SDS011;1009;51.436;6.972;2022-11-20T06:17:18;35.80;;;29.37;;
2011;SDS011;1009;51.436;6.972;2022-11-20T06:19:44;38.60;;;30.77;;
2011;SDS011;1009;51.436;6.972;2022-11-20T06:22:12;33.27;;;28.07;;
2011;SDS011;1009;51.436;6.972;2022-11-20T06:24:39;31.53;;;25.87;;
2011;SDS011;1009;51.436;6.972;2022-11-20T06:27:07;31.00;;;26.30;;
2011;SDS011;1009;51.436;6.972;2022-11-20T06:29:33;31.40;;;26.60;;
2011;SDS011;1009;51.436;6.972;2022-11-20T06:32:00;32.90;;;27.43;;
2011;SDS011;1009;51.436;6.972;2022-11-20T06:34:27;34.50;;;28.13;;
2011;SDS011;1009;51.436;6.972;2022-11-20T06:36:54;38.13;;;29.47;;
2011;SDS011;1009;51.436;6.972;2022-11-20T06:39:20;35.17;;;27.80;;
2011;SDS011;1009;51.436;6.972;2022-11-20T06:41:47;36.77;;;28.10;;
2011;SDS011;1009;51.436;6.972;2022-11-20T06:44:15;32.50;;;26.17;;
2011;SDS011;1009;51.436;6.972;2022-11-20T06:46:42;31.63;;;25.53;;
2011;SDS011;1009;51.436;6.972;2022-11-20T06:49:08;34.60;;;26.27;;
2011;SDS011;1009;51.436;6.972;2022-11-20T06:51:35;35.63;;;27.13;;
2011;SDS011;1009;51.436;6.972;2022-11-20T06:54:02;34.13;;;27.13;;
2011;SDS011;1009;51.436;6.972;2022-11-20T06:56:29;40.43;;;30.07;;
2011;SDS011;1009;51.436;6.972;2022-11-20T06:58:56;43.50;;;32.67;;
2011;SDS011;1009;51.436;6.972;2022-11-20T07:01:24;39.23;;;31.57;;
2011;SDS011;1009;51.436;6.972;2022-11-20T07:03:50;40.03;;;30.33;;
2011;SDS011;1009;51.436;6.972;2022-11-20T07:06:17;38.77;;;29.90;;
2011;SDS011;1009;51.436;6.972;2022-11-20T07:08:44;47.30;;;35.27;;
2011;SDS011;1009;51.436;6.972;2022-11-20T07:11:11;40.70;;;30.27;;
2011;SDS011;1009;51.436;6.972;2022-11-20T07:13:38;38.97;;;31.10;;
2011;SDS011;1009;51.436;6.972;2022-11-20T07:16:06;37.90;;;29.50;;
2011;SDS011;1009;51.436;6.972;2022-11-20T07:18:35;34.23;;;28.00;;
2011;SDS011;1009;51.436;6.972;2022-11-20T07:21:03;38.60;;;29.80;;
2011;SDS011;1009;51.436;6.972;2022-11-20T07:23:31;39.00;;;30.47;;
2011;SDS011;1009;51.436;6.972;2022-11-20T07:25:58;40.67;;;29.53;;
2011;SDS011;1009;51.436;6.972;2022-11-20T07:28:29;40.10;;;29.20;;
2011;SDS011;1009;51.436;6.972;2022-11-20T07:30:55;37.80;;;27.17;;
2011;SDS011;1009;51.436;6.972;2022-11-20T07:33:22;34.47;;;27.63;;
2011;SDS011;1009;51.436;6.972;2022-11-20T07:35:50;35.57;;;27.47;;
2011;SDS011;1009;51.436;6.972;2022-11-20T07:38:17;36.10;;;27.87;;
2011;SDS011;1009;51.436;6.972;2022-11-20T07:40:44;34.97;;;27.20;;
2011;SDS011;1009;51.436;6.972;2022-11-20T07:43:10;40.23;;;31.60;;
2011;SDS011;1009;51.436;6.972;2022-11-20T07:45:37;38.33;;;29.67;;
2011;SDS011;1009;51.436;6.972;2022-11-20T07:48:04;34.10;;;27.33;;
2011;SDS011;1009;51.436;6.972;2022-11-20T07:50:31;39.30;;;28.17;;
2011;SDS011;1009;51.436;6.972;2022-11-20T07:53:03;41.33;;;31.53;;
2011;SDS011;1009;51.436;6.972;2022-11-20T07:55:30;40.27;;;31.30;;
2011;SDS011;1009;51.436;6.972;2022-11-20T07:57:57;40.00;;;30.43;;
2011;SDS011;1009;51.436;6.972;2022-11-20T08:00:24;37.43;;;29.03;;
2011;SDS011;1009;51.436;6.972;2022-11-20T08:02:52;43.93;;;30.00;;
2011;SDS011;1009;51.436;6.972;2022-11-20T08:05:18;40.70;;;31.03;;
2011;SDS011;1009;51.436;6.972;2022-11-20T08:07:45;37.73;;;29.70;;
2011;SDS011;1009;51.436;6.972;2022-11-20T08:10:14;35.47;;;27.37;;
2011;SDS011;1009;51.436;6.972;2022-11-20T08:12:45;34.10;;;27.90;;
2011;SDS011;1009;51.436;6.972;2022-11-20T08:15:29;36.60;;;28.37;;
2011;SDS011;1009;51.436;6.972;2022-11-20T08:18:00;38.43;;;29.53;;
2011;SDS011;1009;51.436;6.972;2022-11-20T08:20:29;41.60;;;30.47;;
2011;SDS011;1009;51.436;6.972;2022-11-20T08:22:59;38.53;;;29.80;;
2011;SDS011;1009;51.436;6.972;2022-11-20T08:25:28;36.20;;;27.53;;
2011;SDS011;1009;51.436;6.972;2022-11-20T08:27:57;35.20;;;27.83;;
2011;SDS011;1009;51.436;6.972;2022-11-20T08:30:24;38.47;;;28.30;;
2011;SDS011;1009;51.436;6.972;2022-11-20T08:32:51;41.27;;;28.67;;
2011;SDS011;1009;51.436;6.972;2022-11-20T08:35:18;34.57;;;26.57;;
2011;SDS011;1009;51.436;6.972;2022-11-20T08:37:45;34.80;;;26.33;;
2011;SDS011;1009;51.436;6.972;2022-11-20T08:40:12;38.60;;;29.90;;
2011;SDS011;1009;51.436;6.972;2022-11-20T08:42:46;35.50;;;26.73;;
2011;SDS011;1009;51.436;6.972;2022-11-20T08:45:13;33.07;;;26.40;;
2011;SDS011;1009;51.436;6.972;2022-11-20T08:47:41;35.80;;;24.90;;
2011;SDS011;1009;51.436;6.972;2022-11-20T08:50:08;38.10;;;28.53;;
2011;SDS011;1009;51.436;6.972;2022-11-20T08:52:35;30.43;;;25.10;;
2011;SDS011;1009;51.436;6.972;2022-11-20T08:55:02;33.37;;;25.03;;
2011;SDS011;1009;51.436;6.972;2022-11-20T08:57:31;33.37;;;26.10;;
2011;SDS011;1009;51.436;6.972;2022-11-20T08:59:59;30.17;;;22.93;;
2011;SDS011;1009;51.436;6.972;2022-11-20T09:02:26;29.13;;;23.63;;
2011;SDS011;1009;51.436;6.972;2022-11-20T09:04:53;32.80;;;24.73;;
2011;SDS011;1009;51.436;6.972;2022-11-20T09:07:19;29.90;;;24.17;;
2011;SDS011;1009;51.436;6.972;2022-11-20T09:09:46;32.80;;;25.00;;
2011;SDS011;1009;51.436;6.972;2022-11-20T09:12:13;30.13;;;25.30;;
2011;SDS011;1009;51.436;6.972;2022-11-20T09:14:40;32.83;;;25.90;;
2011;SDS011;1009;51.436;6.972;2022-11-20T09:17:08;33.50;;;24.37;;
2011;SDS011;1009;51.436;6.972;2022-11-20T09:19:38;29.13;;;23.13;;
2011;SDS011;1009;51.436;6.972;2022-11-20T09:22:05;27.50;;;19.90;;
2011;SDS011;1009;51.436;6.972;2022-11-20T09:24:32;25.73;;;19.97;;
2011;SDS011;1009;51.436;6.972;2022-11-20T09:27:01;28.13;;;19.93;;
2011;SDS011;1009;51.436;6.972;2022-11-20T09:29:29;27.40;;;20.53;;
2011;SDS011;1009;51.436;6.972;2022-11-20T09:31:56;22.03;;;17.70;;
2011;SDS011;1009;51.436;6.972;2022-11-20T09:34:24;22.50;;;19.03;;
2011;SDS011;1009;51.436;6.972;2022-11-20T09:36:50;23.60;;;18.20;;
2011;SDS011;1009;51.436;6.972;2022-11-20T09:39:17;23.77;;;18.37;;
2011;SDS011;1009;51.436;6.972;2022-11-20T09:41:49;21.57;;;18.10;;
2011;SDS011;1009;51.436;6.972;2022-11-20T09:44:38;20.90;;;17.50;;
2011;SDS011;1009;51.436;6.972;2022-11-20T09:47:27;25.87;;;19.57;;
2011;SDS011;1009;51.436;6.972;2022-11-20T09:50:06;21.40;;;18.13;;
2011;SDS011;1009;51.436;6.972;2022-11-20T09:52:47;21.57;;;17.40;;
2011;SDS011;1009;51.436;6.972;2022-11-20T09:55:22;21.37;;;16.67;;
2011;SDS011;1009;51.436;6.972;2022-11-20T09:57:50;19.90;;;16.70;;
2011;SDS011;1009;51.436;6.972;2022-11-20T10:00:18;21.13;;;18.07;;
2011;SDS011;1009;51.436;6.972;2022-11-20T10:02:47;23.03;;;19.43;;
2011;SDS011;1009;51.436;6.972;2022-11-20T10:05:20;20.60;;;18.40;;
2011;SDS011;1009;51.436;6.972;2022-11-20T10:07:52;23.03;;;18.70;;
2011;SDS011;1009;51.436;6.972;2022-11-20T10:10:22;19.13;;;16.90;;
2011;SDS011;1009;51.436;6.972;2022-11-20T10:13:00;22.23;;;16.47;;
2011;SDS011;1009;51.436;6.972;2022-11-20T10:15:40;15.80;;;14.03;;
2011;SDS011;1009;51.436;6.972;2022-11-20T10:18:20;17.00;;;14.17;;
2011;SDS011;1009;51.436;6.972;2022-11-20T10:21:00;16.53;;;14.10;;
2011;SDS011;1009;51.436;6.972;2022-11-20T10:23:48;16.80;;;13.67;;
2011;SDS011;1009;51.436;6.972;2022-11-20T10:26:39;14.47;;;12.70;;
2011;SDS011;1009;51.436;6.972;2022-11-20T10:29:14;16.87;;;14.83;;
2011;SDS011;1009;51.436;6.972;2022-11-20T10:31:43;16.50;;;14.73;;
2011;SDS011;1009;51.436;6.972;2022-11-20T10:34:15;16.57;;;13.93;;
2011;SDS011;1009;51.436;6.972;2022-11-20T10:36:50;16.43;;;14.63;;
2011;SDS011;1009;51.436;6.972;2022-11-20T10:39:23;18.30;;;14.23;;
2011;SDS011;1009;51.436;6.972;2022-11-20T10:41:56;23.77;;;18.40;;
2011;SDS011;1009;51.436;6.972;2022-11-20T10:44:26;21.17;;;18.27;;
2011;SDS011;1009;51.436;6.972;2022-11-20T10:47:12;21.30;;;17.60;;
2011;SDS011;1009;51.436;6.972;2022-11-20T10:49:40;24.87;;;18.90;;
2011;SDS011;1009;51.436;6.972;2022-11-20T10:52:11;20.50;;;16.50;;
2011;SDS011;1009;51.436;6.972;2022-11-20T10:54:44;20.80;;;18.23;;
2011;SDS011;1009;51.436;6.972;2022-11-20T10:57:25;20.20;;;18.00;;
2011;SDS011;1009;51.436;6.972;2022-11-20T11:00:11;25.30;;;20.70;;
2011;SDS011;1009;51.436;6.972;2022-11-20T11:02:39;20.97;;;18.37;;
2011;SDS011;1009;51.436;6.972;2022-11-20T11:05:22;22.20;;;18.07;;
2011;SDS011;1009;51.436;6.972;2022-11-20T11:07:57;20.33;;;16.90;;
2011;SDS011;1009;51.436;6.972;2022-11-20T11:10:26;22.27;;;16.97;;
2011;SDS011;1009;51.436;6.972;2022-11-20T11:12:58;22.23;;;18.13;;
2011;SDS011;1009;51.436;6.972;2022-11-20T11:15:26;20.47;;;17.40;;
2011;SDS011;1009;51.436;6.972;2022-11-20T11:17:55;20.20;;;17.90;;
2011;SDS011;1009;51.436;6.972;2022-11-20T11:20:23;20.27;;;16.50;;
2011;SDS011;1009;51.436;6.972;2022-11-20T11:22:51;21.23;;;18.43;;
2011;SDS011;1009;51.436;6.972;2022-11-20T11:25:26;21.33;;;17.47;;
2011;SDS011;1009;51.436;6.972;2022-11-20T11:27:56;20.87;;;17.30;;
2011;SDS011;1009;51.436;6.972;2022-11-20T11:30:24;20.73;;;18.50;;
2011;SDS011;1009;51.436;6.972;2022-11-20T11:33:02;23.37;;;17.67;;
2011;SDS011;1009;51.436;6.972;2022-11-20T11:35:31;20.73;;;17.50;;
2011;SDS011;1009;51.436;6.972;2022-11-20T11:38:02;21.57;;;17.00;;
2011;SDS011;1009;51.436;6.972;2022-11-20T11:40:34;19.60;;;16.93;;
2011;SDS011;1009;51.436;6.972;2022-11-20T11:43:02;19.20;;;15.70;;
2011;SDS011;1009;51.436;6.972;2022-11-20T11:45:52;21.63;;;16.30;;
2011;SDS011;1009;51.436;6.972;2022-11-20T11:48:19;20.13;;;17.33;;
2011;SDS011;1009;51.436;6.972;2022-11-20T11:50:48;22.03;;;17.13;;
2011;SDS011;1009;51.436;6.972;2022-11-20T11:53:16;21.03;;;16.50;;
2011;SDS011;1009;51.436;6.972;2022-11-20T11:55:47;20.07;;;16.67;;
2011;SDS011;1009;51.436;6.972;2022-11-20T11:58:27;22.07;;;18.00;;
2011;SDS011;1009;51.436;6.972;2022-11-20T12:01:02;20.80;;;16.93;;
2011;SDS011;1009;51.436;6.972;2022-11-20T12:03:34;20.00;;;16.87;;
2011;SDS011;1009;51.436;6.972;2022-11-20T12:06:05;21.23;;;16.40;;
2011;SDS011;1009;51.436;6.972;2022-11-20T12:08:38;25.13;;;19.27;;
2011;SDS011;1009;51.436;6.972;2022-11-20T12:11:12;24.60;;;17.23;;
2011;SDS011;1009;51.436;6.972;2022-11-20T12:13:45;23.00;;;17.33;;
2011;SDS011;1009;51.436;6.972;2022-11-20T12:16:17;19.97;;;16.50;;
2011;SDS011;1009;51.436;6.972;2022-11-20T12:18:46;23.13;;;17.70;;
2011;SDS011;1009;51.436;6.972;2022-11-20T12:21:18;22.20;;;18.13;;
2011;SDS011;1009;51.436;6.972;2022-11-20T12:23:59;21.40;;;18.30;;
2011;SDS011;1009;51.436;6.972;2022-11-20T12:26:48;24.87;;;18.37;;
2011;SDS011;1009;51.436;6.972;2022-11-20T12:29:27;21.60;;;17.30;;
2011;SDS011;1009;51.436;6.972;2022-11-20T12:32:06;22.83;;;18.87;;
2011;SDS011;1009;51.436;6.972;2022-11-20T12:34:57;23.80;;;17.83;;
2011;SDS011;1009;51.436;6.972;2022-11-20T12:37:33;24.53;;;17.70;;
2011;SDS011;1009;51.436;6.972;2022-11-20T12:40:14;28.60;;;20.83;;
2011;SDS011;1009;51.436;6.972;2022-11-20T12:42:57;26.23;;;20.40;;
2011;SDS011;1009;51.436;6.972;2022-11-20T12:45:54;25.80;;;20.10;;
2011;SDS011;1009;51.436;6.972;2022-11-20T12:48:50;26.50;;;19.80;;
2011;SDS011;1009;51.436;6.972;2022-11-20T12:51:41;25.77;;;19.20;;
2011;SDS011;1009;51.436;6.972;2022-11-20T12:54:33;25.33;;;19.23;;
2011;SDS011;1009;51.436;6.972;2022-11-20T12:57:28;23.63;;;18.73;;
2011;SDS011;1009;51.436;6.972;2022-11-20T13:00:10;27.03;;;19.83;;
2011;SDS011;1009;51.436;6.972;2022-11-20T13:02:55;26.50;;;19.40;;
2011;SDS011;1009;51.436;6.972;2022-11-20T13:05:35;27.47;;;21.40;;
2011;SDS011;1009;51.436;6.972;2022-11-20T13:08:14;27.83;;;21.07;;
2011;SDS011;1009;51.436;6.972;2022-11-20T13:10:48;25.33;;;19.63;;
2011;SDS011;1009;51.436;6.972;2022-11-20T13:13:19;23.80;;;20.10;;
2011;SDS011;1009;51.436;6.972;2022-11-20T13:16:14;26.27;;;21.53;;
2011;SDS011;1009;51.436;6.972;2022-11-20T13:18:45;26.67;;;21.00;;
2011;SDS011;1009;51.436;6.972;2022-11-20T13:21:13;25.60;;;20.60;;
2011;SDS011;1009;51.436;6.972;2022-11-20T13:23:41;24.43;;;20.30;;
2011;SDS011;1009;51.436;6.972;2022-11-20T13:26:14;25.60;;;21.57;;
2011;SDS011;1009;51.436;6.972;2022-11-20T13:28:42;26.43;;;22.07;;
2011;SDS011;1009;51.436;6.972;2022-11-20T13:31:21;26.93;;;22.13;;
2011;SDS011;1009;51.436;6.972;2022-11-20T13:33:55;31.80;;;23.97;;
2011;SDS011;1009;51.436;6.972;2022-11-20T13:36:24;28.80;;;22.20;;
2011;SDS011;1009;51.436;6.972;2022-11-20T13:38:52;29.80;;;23.47;;
2011;SDS011;1009;51.436;6.972;2022-11-20T13:41:23;27.30;;;21.43;;
2011;SDS011;1009;51.436;6.972;2022-11-20T13:43:57;29.77;;;22.47;;
2011;SDS011;1009;51.436;6.972;2022-11-20T13:46:36;28.67;;;22.70;;
2011;SDS011;1009;51.436;6.972;2022-11-20T13:49:07;27.40;;;22.47;;
2011;SDS011;1009;51.436;6.972;2022-11-20T13:51:37;31.57;;;24.03;;
2011;SDS011;1009;51.436;6.972;2022-11-20T13:54:16;34.33;;;24.80;;
2011;SDS011;1009;51.436;6.972;2022-11-20T13:57:06;30.43;;;24.57;;
2011;SDS011;1009;51.436;6.972;2022-11-20T13:59:45;30.33;;;24.83;;
2011;SDS011;1009;51.436;6.972;2022-11-20T14:02:24;32.40;;;24.77;;
2011;SDS011;1009;51.436;6.972;2022-11-20T14:04:54;30.20;;;23.87;;
2011;SDS011;1009;51.436;6.972;2022-11-20T14:07:24;30.13;;;23.87;;
2011;SDS011;1009;51.436;6.972;2022-11-20T14:09:53;34.70;;;25.20;;
2011;SDS011;1009;51.436;6.972;2022-11-20T14:12:22;32.37;;;25.10;;
2011;SDS011;1009;51.436;6.972;2022-11-20T14:14:54;31.63;;;24.87;;
2011;SDS011;1009;51.436;6.972;2022-11-20T14:17:24;33.67;;;25.17;;
2011;SDS011;1009;51.436;6.972;2022-11-20T14:19:57;32.47;;;23.90;;
2011;SDS011;1009;51.436;6.972;2022-11-20T14:22:26;33.13;;;24.63;;
2011;SDS011;1009;51.436;6.972;2022-11-20T14:25:01;30.40;;;24.20;;
2011;SDS011;1009;51.436;6.972;2022-11-20T14:27:32;31.20;;;24.60;;
2011;SDS011;1009;51.436;6.972;2022-11-20T14:30:00;30.57;;;23.80;;
2011;SDS011;1009;51.436;6.972;2022-11-20T14:32:29;30.13;;;24.00;;
2011;SDS011;1009;51.436;6.972;2022-11-20T14:34:59;29.33;;;23.10;;
2011;SDS011;1009;51.436;6.972;2022-11-20T14:37:33;34.43;;;24.93;;
2011;SDS011;1009;51.436;6.972;2022-11-20T14:40:05;28.77;;;23.40;;
2011;SDS011;1009;51.436;6.972;2022-11-20T14:42:48;34.27;;;25.80;;
2011;SDS011;1009;51.436;6.972;2022-11-20T14:45:15;33.30;;;25.67;;
2011;SDS011;1009;51.436;6.972;2022-11-20T14:47:44;37.40;;;26.07;;
2011;SDS011;1009;51.436;6.972;2022-11-20T14:50:12;34.50;;;26.07;;
2011;SDS011;1009;51.436;6.972;2022-11-20T14:52:49;35.57;;;27.13;;
2011;SDS011;1009;51.436;6.972;2022-11-20T14:55:24;36.50;;;26.27;;
2011;SDS011;1009;51.436;6.972;2022-11-20T14:57:54;30.60;;;25.20;;
2011;SDS011;1009;51.436;6.972;2022-11-20T15:00:22;34.67;;;26.40;;
2011;SDS011;1009;51.436;6.972;2022-11-20T15:02:51;34.90;;;26.80;;
2011;SDS011;1009;51.436;6.972;2022-11-20T15:05:19;35.63;;;27.57;;
2011;SDS011;1009;51.436;6.972;2022-11-20T15:07:47;34.20;;;26.60;;